»·PEaware :: WWW99 KSNA-KLAS

WWW99 :: KSNA-KLAS

FLIGHT INFORMATION

Flight Status: Arrived
Operator: Unknown
More flights by this operator :: More flights under this callsign
Pilot: Cam B. (44688)
Aircraft: BOEING 737-600
(B736)
More flights by this aircraft type
Origin: KSNA John Wayne-Orange Co
United States
Destination: KLAS Harry Reid Intl
United States
More flights between these airports :: More routes between these airports
Route: FINZZ3 MISEN RNDRZ2
File this flight plan on PilotEdge
Remarks: RMK / SIMBRIEF
Altitude:
(Current/Filed)
35,000ft
Speed:
(Current/Filed)
448kts
Departed: 23-Sep-23 12:27 PM
Arrived: 23-Sep-23 01:13 PM
Distance/Time
Traveled:
197nm/0:46
Distance/Time
To Go:
Arrived

Flight Plot

Page will automatically refresh every two minutes.

Flight plan parsing failed; only flown route is shown


Map Options




Map Legend


Flown Route
Filed Route
Departure Airport
Arrival Airport
Navaid (VOR, NDB)
Fix

Horizontal Profiles

Position Reports

Time Latitude Longitude Heading Altitude Ground
Speed
23-Sep-23 11:39 33.673981 -117.865308 187 57ft 0kts
23-Sep-23 11:40 33.673981 -117.865308 187 57ft 0kts
23-Sep-23 11:41 33.673981 -117.865308 187 57ft 0kts
23-Sep-23 11:42 33.673981 -117.865308 187 57ft 0kts
23-Sep-23 11:43 33.673981 -117.865308 187 57ft 0kts
23-Sep-23 11:44 33.673981 -117.865308 187 57ft 0kts
23-Sep-23 11:45 33.673981 -117.865308 187 57ft 0kts
23-Sep-23 11:46 33.673981 -117.865308 187 57ft 0kts
23-Sep-23 11:47 33.673981 -117.865308 187 57ft 0kts
23-Sep-23 11:48 33.673981 -117.865308 187 57ft 0kts
23-Sep-23 11:49 33.673981 -117.865308 187 57ft 0kts
23-Sep-23 11:50 33.673981 -117.865308 187 57ft 0kts
23-Sep-23 11:51 33.673981 -117.865308 187 57ft 0kts
23-Sep-23 11:52 33.673981 -117.865308 187 57ft 0kts
23-Sep-23 11:53 33.673981 -117.865308 187 57ft 0kts
23-Sep-23 11:53 33.673981 -117.865308 187 57ft 0kts
23-Sep-23 11:55 33.673981 -117.865308 187 57ft 0kts
23-Sep-23 11:56 33.673981 -117.865308 187 57ft 0kts
23-Sep-23 11:57 33.673981 -117.865308 187 57ft 0kts
23-Sep-23 11:58 33.673981 -117.865308 187 57ft 0kts
23-Sep-23 11:58 33.673981 -117.865308 187 57ft 0kts
23-Sep-23 11:59 33.673981 -117.865308 187 57ft 0kts
23-Sep-23 12:01 33.673981 -117.865308 187 57ft 0kts
23-Sep-23 12:02 33.673981 -117.865308 187 57ft 0kts
23-Sep-23 12:02 33.673981 -117.865308 187 57ft 0kts
23-Sep-23 12:03 33.673981 -117.865308 187 57ft 0kts
23-Sep-23 12:04 33.673981 -117.865308 187 57ft 0kts
23-Sep-23 12:05 33.673981 -117.865308 187 57ft 0kts
23-Sep-23 12:06 33.673981 -117.865308 187 57ft 0kts
23-Sep-23 12:07 33.673981 -117.865308 187 57ft 0kts
23-Sep-23 12:08 33.673981 -117.865308 187 66ft 0kts
23-Sep-23 12:09 33.673981 -117.865308 187 66ft 0kts
23-Sep-23 12:10 33.673981 -117.865308 187 66ft 0kts
23-Sep-23 12:11 33.673981 -117.865308 187 66ft 0kts
23-Sep-23 12:12 33.673981 -117.865308 187 66ft 0kts
23-Sep-23 12:13 33.673981 -117.865308 187 66ft 0kts
23-Sep-23 12:14 33.673981 -117.865308 187 66ft 0kts
23-Sep-23 12:15 33.673981 -117.865308 187 66ft 0kts
23-Sep-23 12:16 33.673981 -117.865308 187 66ft 0kts
23-Sep-23 12:17 33.673981 -117.865308 187 66ft 0kts
23-Sep-23 12:18 33.673981 -117.865308 187 66ft 0kts
23-Sep-23 12:19 33.673981 -117.865308 187 66ft 0kts
23-Sep-23 12:20 33.673981 -117.865308 187 66ft 0kts
23-Sep-23 12:21 33.673833 -117.865393 231 53ft 3kts
23-Sep-23 12:22 33.675634 -117.865522 28 56ft 15kts
23-Sep-23 12:23 33.679839 -117.862855 27 48ft 16kts
23-Sep-23 12:24 33.680693 -117.863174 297 44ft 3kts
23-Sep-23 12:25 33.681027 -117.865506 207 44ft 0kts
23-Sep-23 12:26 33.674947 -117.869332 207 58ft 115kts
23-Sep-23 12:27 33.631206 -117.895432 192 1281ft 208kts
23-Sep-23 12:28 33.569289 -117.903452 188 3641ft 233kts
23-Sep-23 12:29 33.517529 -117.957393 228 7342ft 273kts
23-Sep-23 12:30 33.508966 -118.038780 306 7983ft 277kts
23-Sep-23 12:31 33.561692 -118.106017 314 9030ft 281kts
23-Sep-23 12:32 33.643323 -118.100145 24 11363ft 366kts
23-Sep-23 12:33 33.736798 -118.044002 23 14494ft 386kts
23-Sep-23 12:34 33.834859 -117.986603 23 17460ft 399kts
23-Sep-23 12:35 33.934524 -117.921860 34 19933ft 420kts
23-Sep-23 12:36 34.028141 -117.833381 34 22167ft 437kts
23-Sep-23 12:37 34.120927 -117.734261 48 24059ft 459kts
23-Sep-23 12:38 34.201926 -117.610542 48 25069ft 476kts
23-Sep-23 12:39 34.288113 -117.482183 48 25065ft 495kts
23-Sep-23 12:40 34.375909 -117.350999 48 25057ft 509kts
23-Sep-23 12:41 34.464597 -117.217876 48 25029ft 507kts
23-Sep-23 12:42 34.553090 -117.084748 47 25019ft 507kts
23-Sep-23 12:43 34.643171 -116.953875 47 25039ft 506kts
23-Sep-23 12:44 34.733472 -116.822023 47 25061ft 507kts
23-Sep-23 12:45 34.823554 -116.689776 47 25075ft 507kts
23-Sep-23 12:46 34.877203 -116.618533 35 25055ft 501kts
23-Sep-23 12:47 34.987200 -116.515797 34 25012ft 499kts
23-Sep-23 12:48 35.094517 -116.411470 34 24055ft 486kts
23-Sep-23 12:49 35.189037 -116.292135 44 24001ft 489kts
23-Sep-23 12:50 35.282147 -116.171126 42 23976ft 488kts
23-Sep-23 12:51 35.375824 -116.050042 44 23973ft 488kts
23-Sep-23 12:52 35.459297 -115.923803 46 20662ft 469kts
23-Sep-23 12:53 35.541275 -115.810213 45 19251ft 410kts
23-Sep-23 12:54 35.612025 -115.712670 44 18511ft 367kts
23-Sep-23 12:55 35.679146 -115.622310 44 16809ft 342kts
23-Sep-23 12:56 35.743947 -115.543270 26 15356ft 317kts
23-Sep-23 12:57 35.821601 -115.490283 26 14007ft 327kts
23-Sep-23 12:58 35.898493 -115.436419 27 12563ft 304kts
23-Sep-23 12:59 35.972078 -115.385058 27 11558ft 311kts
23-Sep-23 13:00 36.014294 -115.302104 92 10606ft 305kts
23-Sep-23 13:01 36.007639 -115.199499 94 9811ft 288kts
23-Sep-23 13:02 36.002563 -115.112563 94 9406ft 222kts
23-Sep-23 13:03 35.999215 -115.045951 90 8404ft 183kts
23-Sep-23 13:04 35.999028 -114.980146 90 7476ft 189kts
23-Sep-23 13:05 36.003530 -114.919471 42 6535ft 177kts
23-Sep-23 13:06 36.047026 -114.901432 327 5688ft 176kts
23-Sep-23 13:07 36.073662 -114.946868 270 4836ft 178kts
23-Sep-23 13:08 36.073940 -115.007277 269 3979ft 174kts
23-Sep-23 13:09 36.073781 -115.063035 270 3174ft 148kts
23-Sep-23 13:10 36.073683 -115.112507 269 2277ft 141kts
23-Sep-23 13:11 36.073634 -115.152095 269 2132ft 59kts
23-Sep-23 13:12 36.074637 -115.161273 358 2168ft 0kts
23-Sep-23 13:13 36.075012 -115.161886 267 2164ft 10kts
23-Sep-23 13:14 36.075300 -115.164542 335 2174ft 1kts
23-Sep-23 13:15 36.078096 -115.164468 264 2167ft 12kts
23-Sep-23 13:16 36.078029 -115.169016 270 2188ft 17kts
23-Sep-23 13:17 36.080976 -115.169495 25 2185ft 22kts
23-Sep-23 13:18 36.086901 -115.166144 26 2157ft 20kts
23-Sep-23 13:19 36.089164 -115.166115 288 2148ft 8kts
23-Sep-23 13:20 36.089315 -115.166216 0 2146ft 0kts

Navigation Log

Ident Type
Flight plan parsing failed, navigation log unavailable